Houston, Texas
Traffic Map
Current Weather Conditions
Houston, Texas
Scattered Clouds
Scattered Clouds
85°
Feels Like: 97°
Wind Chill: 85° Ceiling: Unl
Heat Index: 97° Visibility: 10mi
Dew Point: 78° Wind: 8mph
Humidity: 80% Direction: 210° (SSW)
Pressure: 29.94in Gusts: 0mph
Raw Report DataKIAH 191353Z 21007KT 10SM FEW018 SCT120 SCT250 29/26 A2994 RMK AO2 SLP138 T02940256
Traffic Incident Summary
Active as of:
Severity:
Category:
InformationThere was an issue retrieving the traffic information for this location. Please try a different location or try again shortly.
Advertisements